sensor_id;sensor_type;location;lat;lon;timestamp;pressure;altitude;pressure_sealevel;temperature;humidity
68822;BME280;55834;50.870;4.606;2023-02-02T00:00:46;101668.50;;;5.30;58.75
68822;BME280;55834;50.870;4.606;2023-02-02T00:03:12;101677.91;;;5.11;59.25
68822;BME280;55834;50.870;4.606;2023-02-02T00:05:37;101674.13;;;5.85;58.21
68822;BME280;55834;50.870;4.606;2023-02-02T00:08:02;101678.38;;;5.65;58.09
68822;BME280;55834;50.870;4.606;2023-02-02T00:10:28;101679.88;;;5.35;59.57
68822;BME280;55834;50.870;4.606;2023-02-02T00:12:53;101682.16;;;5.03;59.93
68822;BME280;55834;50.870;4.606;2023-02-02T00:15:22;101680.06;;;5.61;58.27
68822;BME280;55834;50.870;4.606;2023-02-02T00:17:47;101680.03;;;5.55;58.97
68822;BME280;55834;50.870;4.606;2023-02-02T00:20:13;101677.69;;;5.97;57.90
68822;BME280;55834;50.870;4.606;2023-02-02T00:22:38;101688.19;;;6.01;57.73
68822;BME280;55834;50.870;4.606;2023-02-02T00:25:03;101693.16;;;5.57;58.61
68822;BME280;55834;50.870;4.606;2023-02-02T00:27:29;101687.66;;;5.29;59.48
68822;BME280;55834;50.870;4.606;2023-02-02T00:29:54;101689.66;;;5.58;58.10
68822;BME280;55834;50.870;4.606;2023-02-02T00:32:21;101687.22;;;5.82;57.70
68822;BME280;55834;50.870;4.606;2023-02-02T00:34:47;101684.53;;;5.76;58.22
68822;BME280;55834;50.870;4.606;2023-02-02T00:37:12;101679.38;;;5.85;57.63
68822;BME280;55834;50.870;4.606;2023-02-02T00:39:37;101684.75;;;6.05;57.51
68822;BME280;55834;50.870;4.606;2023-02-02T00:42:03;101679.34;;;5.79;58.55
68822;BME280;55834;50.870;4.606;2023-02-02T00:44:28;101676.88;;;6.05;57.65
68822;BME280;55834;50.870;4.606;2023-02-02T00:47:12;101679.53;;;6.15;56.90
68822;BME280;55834;50.870;4.606;2023-02-02T00:49:37;101684.81;;;6.28;57.25
68822;BME280;55834;50.870;4.606;2023-02-02T00:52:02;101687.00;;;5.55;58.53
68822;BME280;55834;50.870;4.606;2023-02-02T00:54:28;101679.16;;;5.53;59.18
68822;BME280;55834;50.870;4.606;2023-02-02T00:56:53;101682.78;;;5.71;58.49
68822;BME280;55834;50.870;4.606;2023-02-02T00:59:19;101678.53;;;5.91;57.97
68822;BME280;55834;50.870;4.606;2023-02-02T01:01:44;101673.97;;;5.62;58.35
68822;BME280;55834;50.870;4.606;2023-02-02T01:04:09;101684.47;;;5.64;58.26
68822;BME280;55834;50.870;4.606;2023-02-02T01:06:35;101683.41;;;5.39;59.57
68822;BME280;55834;50.870;4.606;2023-02-02T01:09:00;101681.50;;;5.21;59.93
68822;BME280;55834;50.870;4.606;2023-02-02T01:11:26;101678.59;;;6.08;58.27
68822;BME280;55834;50.870;4.606;2023-02-02T01:13:52;101686.88;;;5.38;59.37
68822;BME280;55834;50.870;4.606;2023-02-02T01:16:17;101686.47;;;6.05;58.53
68822;BME280;55834;50.870;4.606;2023-02-02T01:18:43;101683.91;;;6.19;57.42
68822;BME280;55834;50.870;4.606;2023-02-02T01:21:10;101688.31;;;6.24;57.42
68822;BME280;55834;50.870;4.606;2023-02-02T01:23:36;101701.06;;;5.68;58.56
68822;BME280;55834;50.870;4.606;2023-02-02T01:26:04;101689.91;;;4.92;61.10
68822;BME280;55834;50.870;4.606;2023-02-02T01:28:30;101693.34;;;5.87;58.72
68822;BME280;55834;50.870;4.606;2023-02-02T01:30:56;101687.22;;;5.84;58.53
68822;BME280;55834;50.870;4.606;2023-02-02T01:33:22;101694.38;;;6.13;57.56
68822;BME280;55834;50.870;4.606;2023-02-02T01:35:50;101696.25;;;6.43;56.36
68822;BME280;55834;50.870;4.606;2023-02-02T01:38:16;101684.97;;;6.57;55.76
68822;BME280;55834;50.870;4.606;2023-02-02T01:40:54;101685.91;;;6.73;56.00
68822;BME280;55834;50.870;4.606;2023-02-02T01:46:12;101704.41;;;5.47;59.53
68822;BME280;55834;50.870;4.606;2023-02-02T01:48:41;101710.06;;;6.03;58.27
68822;BME280;55834;50.870;4.606;2023-02-02T01:51:16;101710.19;;;6.31;56.97
68822;BME280;55834;50.870;4.606;2023-02-02T01:53:44;101707.59;;;6.36;56.74
68822;BME280;55834;50.870;4.606;2023-02-02T01:56:14;101705.59;;;5.85;58.41
68822;BME280;55834;50.870;4.606;2023-02-02T01:58:42;101700.59;;;6.30;57.55
68822;BME280;55834;50.870;4.606;2023-02-02T02:01:08;101711.13;;;6.48;56.25
68822;BME280;55834;50.870;4.606;2023-02-02T02:03:35;101702.41;;;6.48;56.34
68822;BME280;55834;50.870;4.606;2023-02-02T02:06:05;101707.47;;;6.06;57.27
68822;BME280;55834;50.870;4.606;2023-02-02T02:08:56;101691.91;;;6.48;56.52
68822;BME280;55834;50.870;4.606;2023-02-02T02:11:24;101695.81;;;5.64;58.36
68822;BME280;55834;50.870;4.606;2023-02-02T02:13:51;101689.88;;;5.90;57.02
68822;BME280;55834;50.870;4.606;2023-02-02T02:16:52;101688.34;;;6.26;57.05
68822;BME280;55834;50.870;4.606;2023-02-02T02:23:04;101696.22;;;6.37;56.90
68822;BME280;55834;50.870;4.606;2023-02-02T02:26:06;101697.03;;;6.19;57.47
68822;BME280;55834;50.870;4.606;2023-02-02T02:29:39;101708.50;;;6.38;56.76
68822;BME280;55834;50.870;4.606;2023-02-02T02:40:05;101698.59;;;5.91;58.31
68822;BME280;55834;50.870;4.606;2023-02-02T02:42:37;101697.63;;;5.75;58.08
68822;BME280;55834;50.870;4.606;2023-02-02T02:45:04;101695.31;;;6.28;56.70
68822;BME280;55834;50.870;4.606;2023-02-02T02:47:32;101698.31;;;5.49;58.11
68822;BME280;55834;50.870;4.606;2023-02-02T02:49:58;101696.25;;;5.11;60.15
68822;BME280;55834;50.870;4.606;2023-02-02T02:52:24;101690.66;;;5.74;58.27
68822;BME280;55834;50.870;4.606;2023-02-02T02:54:52;101706.25;;;5.57;58.65
68822;BME280;55834;50.870;4.606;2023-02-02T03:02:52;101707.84;;;5.41;58.61
68822;BME280;55834;50.870;4.606;2023-02-02T03:08:17;101708.88;;;5.57;58.48
68822;BME280;55834;50.870;4.606;2023-02-02T03:10:45;101700.72;;;5.22;59.75
68822;BME280;55834;50.870;4.606;2023-02-02T03:13:13;101705.72;;;6.13;56.91
68822;BME280;55834;50.870;4.606;2023-02-02T03:15:43;101701.94;;;5.65;57.83
68822;BME280;55834;50.870;4.606;2023-02-02T03:18:11;101705.72;;;6.08;57.40
68822;BME280;55834;50.870;4.606;2023-02-02T03:20:37;101708.53;;;6.48;56.13
68822;BME280;55834;50.870;4.606;2023-02-02T03:23:03;101716.31;;;6.30;56.34
68822;BME280;55834;50.870;4.606;2023-02-02T03:25:28;101711.06;;;6.27;55.95
68822;BME280;55834;50.870;4.606;2023-02-02T03:27:53;101718.16;;;6.48;55.93
68822;BME280;55834;50.870;4.606;2023-02-02T03:30:19;101718.66;;;5.82;57.19
68822;BME280;55834;50.870;4.606;2023-02-02T03:32:46;101713.72;;;6.33;56.11
68822;BME280;55834;50.870;4.606;2023-02-02T03:35:11;101705.75;;;6.16;56.82
68822;BME280;55834;50.870;4.606;2023-02-02T03:37:36;101719.09;;;5.29;59.59
68822;BME280;55834;50.870;4.606;2023-02-02T03:40:03;101718.50;;;5.61;57.96
68822;BME280;55834;50.870;4.606;2023-02-02T03:42:28;101723.00;;;5.80;57.27
68822;BME280;55834;50.870;4.606;2023-02-02T03:44:53;101718.13;;;6.42;56.04
68822;BME280;55834;50.870;4.606;2023-02-02T03:47:19;101711.88;;;6.17;56.48
68822;BME280;55834;50.870;4.606;2023-02-02T03:49:44;101723.06;;;5.88;57.53
68822;BME280;55834;50.870;4.606;2023-02-02T03:52:09;101723.59;;;5.42;58.49
68822;BME280;55834;50.870;4.606;2023-02-02T03:54:35;101725.88;;;6.14;57.51
68822;BME280;55834;50.870;4.606;2023-02-02T03:57:00;101716.19;;;6.04;57.00
68822;BME280;55834;50.870;4.606;2023-02-02T03:59:25;101717.44;;;5.37;59.36
68822;BME280;55834;50.870;4.606;2023-02-02T04:01:51;101717.41;;;5.34;58.81
68822;BME280;55834;50.870;4.606;2023-02-02T04:04:16;101719.72;;;6.17;57.28
68822;BME280;55834;50.870;4.606;2023-02-02T04:06:41;101727.63;;;6.20;56.83
68822;BME280;55834;50.870;4.606;2023-02-02T04:09:07;101718.25;;;6.68;55.47
68822;BME280;55834;50.870;4.606;2023-02-02T04:11:33;101731.81;;;5.90;57.56
68822;BME280;55834;50.870;4.606;2023-02-02T04:13:58;101733.66;;;6.06;56.93
68822;BME280;55834;50.870;4.606;2023-02-02T04:16:23;101743.38;;;6.24;56.34
68822;BME280;55834;50.870;4.606;2023-02-02T04:18:49;101746.09;;;6.40;56.53
68822;BME280;55834;50.870;4.606;2023-02-02T04:21:14;101753.66;;;5.94;57.50
68822;BME280;55834;50.870;4.606;2023-02-02T04:23:39;101745.94;;;6.09;56.87
68822;BME280;55834;50.870;4.606;2023-02-02T04:26:05;101759.06;;;5.11;59.64
68822;BME280;55834;50.870;4.606;2023-02-02T04:28:30;101763.47;;;5.14;60.16
68822;BME280;55834;50.870;4.606;2023-02-02T04:30:56;101747.34;;;5.64;58.50
68822;BME280;55834;50.870;4.606;2023-02-02T04:33:23;101753.44;;;5.63;58.33
68822;BME280;55834;50.870;4.606;2023-02-02T04:35:49;101753.41;;;5.57;58.58
68822;BME280;55834;50.870;4.606;2023-02-02T04:38:14;101752.19;;;5.21;59.49
68822;BME280;55834;50.870;4.606;2023-02-02T04:40:45;101750.91;;;5.75;58.76
68822;BME280;55834;50.870;4.606;2023-02-02T04:43:11;101760.66;;;5.92;57.58
68822;BME280;55834;50.870;4.606;2023-02-02T04:45:37;101764.03;;;5.74;57.97
68822;BME280;55834;50.870;4.606;2023-02-02T04:48:03;101769.97;;;5.56;59.03
68822;BME280;55834;50.870;4.606;2023-02-02T04:50:29;101766.50;;;5.57;58.33
68822;BME280;55834;50.870;4.606;2023-02-02T04:52:54;101779.00;;;5.02;59.94
68822;BME280;55834;50.870;4.606;2023-02-02T04:55:20;101769.34;;;5.84;58.15
68822;BME280;55834;50.870;4.606;2023-02-02T04:57:45;101767.25;;;5.43;59.18
68822;BME280;55834;50.870;4.606;2023-02-02T05:00:11;101767.81;;;6.14;56.86
68822;BME280;55834;50.870;4.606;2023-02-02T05:02:38;101773.13;;;6.31;56.53
68822;BME280;55834;50.870;4.606;2023-02-02T05:05:05;101765.72;;;5.70;58.20
68822;BME280;55834;50.870;4.606;2023-02-02T05:07:31;101761.66;;;6.09;57.55
68822;BME280;55834;50.870;4.606;2023-02-02T05:09:56;101756.13;;;5.72;57.70
68822;BME280;55834;50.870;4.606;2023-02-02T05:12:21;101766.03;;;6.10;57.01
68822;BME280;55834;50.870;4.606;2023-02-02T05:14:47;101761.81;;;6.37;57.58
68822;BME280;55834;50.870;4.606;2023-02-02T05:17:12;101754.34;;;5.65;58.13
68822;BME280;55834;50.870;4.606;2023-02-02T05:19:37;101756.28;;;5.94;58.47
68822;BME280;55834;50.870;4.606;2023-02-02T05:22:02;101756.41;;;6.09;57.55
68822;BME280;55834;50.870;4.606;2023-02-02T05:24:28;101746.53;;;5.73;58.79
68822;BME280;55834;50.870;4.606;2023-02-02T05:26:55;101753.72;;;5.97;58.28
68822;BME280;55834;50.870;4.606;2023-02-02T05:29:27;101749.63;;;6.51;56.96
68822;BME280;55834;50.870;4.606;2023-02-02T05:31:53;101750.59;;;6.65;55.86
68822;BME280;55834;50.870;4.606;2023-02-02T05:34:19;101757.69;;;6.85;55.45
68822;BME280;55834;50.870;4.606;2023-02-02T05:36:44;101752.47;;;5.52;60.02
68822;BME280;55834;50.870;4.606;2023-02-02T05:39:09;101753.41;;;5.61;59.95
68822;BME280;55834;50.870;4.606;2023-02-02T05:41:35;101748.63;;;6.23;58.21
68822;BME280;55834;50.870;4.606;2023-02-02T05:44:01;101745.78;;;5.91;58.81
68822;BME280;55834;50.870;4.606;2023-02-02T05:46:26;101745.91;;;6.10;58.75
68822;BME280;55834;50.870;4.606;2023-02-02T05:48:52;101752.00;;;6.08;57.43
68822;BME280;55834;50.870;4.606;2023-02-02T05:51:19;101756.41;;;6.09;58.02
68822;BME280;55834;50.870;4.606;2023-02-02T05:53:45;101756.28;;;5.94;58.82
68822;BME280;55834;50.870;4.606;2023-02-02T05:56:12;101761.50;;;5.89;59.81
68822;BME280;55834;50.870;4.606;2023-02-02T05:58:37;101768.53;;;5.93;58.74
68822;BME280;55834;50.870;4.606;2023-02-02T06:01:03;101764.84;;;5.68;59.57
68822;BME280;55834;50.870;4.606;2023-02-02T06:03:28;101770.13;;;5.76;59.94
68822;BME280;55834;50.870;4.606;2023-02-02T06:05:53;101775.56;;;5.97;59.43
68822;BME280;55834;50.870;4.606;2023-02-02T06:08:19;101771.28;;;6.11;59.79
68822;BME280;55834;50.870;4.606;2023-02-02T06:10:46;101783.16;;;5.66;60.64
68822;BME280;55834;50.870;4.606;2023-02-02T06:13:11;101780.66;;;5.82;60.40
68822;BME280;55834;50.870;4.606;2023-02-02T06:15:36;101783.19;;;5.70;60.28
68822;BME280;55834;50.870;4.606;2023-02-02T06:18:02;101785.84;;;5.71;61.74
68822;BME280;55834;50.870;4.606;2023-02-02T06:20:30;101787.41;;;5.51;62.03
68822;BME280;55834;50.870;4.606;2023-02-02T06:22:56;101785.41;;;5.25;63.49
68822;BME280;55834;50.870;4.606;2023-02-02T06:25:21;101787.69;;;5.84;61.57
68822;BME280;55834;50.870;4.606;2023-02-02T06:27:47;101788.19;;;5.43;62.13
68822;BME280;55834;50.870;4.606;2023-02-02T06:30:14;101790.50;;;5.14;64.34
68822;BME280;55834;50.870;4.606;2023-02-02T06:32:39;101788.25;;;5.50;63.07
68822;BME280;55834;50.870;4.606;2023-02-02T06:35:05;101790.13;;;5.64;62.85
68822;BME280;55834;50.870;4.606;2023-02-02T06:37:30;101805.16;;;5.00;64.54
68822;BME280;55834;50.870;4.606;2023-02-02T06:39:58;101787.66;;;5.81;63.03
68822;BME280;55834;50.870;4.606;2023-02-02T06:42:23;101804.06;;;5.57;62.49
68822;BME280;55834;50.870;4.606;2023-02-02T06:44:48;101798.50;;;5.27;63.16
68822;BME280;55834;50.870;4.606;2023-02-02T06:47:14;101803.06;;;5.45;62.26
68822;BME280;55834;50.870;4.606;2023-02-02T06:49:39;101799.19;;;6.05;61.29
68822;BME280;55834;50.870;4.606;2023-02-02T06:52:06;101795.69;;;6.00;60.83
68822;BME280;55834;50.870;4.606;2023-02-02T06:54:31;101804.97;;;5.64;61.53
68822;BME280;55834;50.870;4.606;2023-02-02T06:56:56;101801.81;;;6.05;61.21
68822;BME280;55834;50.870;4.606;2023-02-02T06:59:23;101809.72;;;6.09;60.60
68822;BME280;55834;50.870;4.606;2023-02-02T07:01:49;101809.50;;;5.80;61.46
68822;BME280;55834;50.870;4.606;2023-02-02T07:04:16;101814.13;;;6.12;59.77
68822;BME280;55834;50.870;4.606;2023-02-02T07:06:42;101819.19;;;5.89;60.40
68822;BME280;55834;50.870;4.606;2023-02-02T07:09:07;101815.84;;;6.10;60.16
68822;BME280;55834;50.870;4.606;2023-02-02T07:11:32;101816.75;;;6.12;60.83
68822;BME280;55834;50.870;4.606;2023-02-02T07:14:00;101825.72;;;5.39;61.65
68822;BME280;55834;50.870;4.606;2023-02-02T07:16:25;101816.09;;;5.41;62.77
68822;BME280;55834;50.870;4.606;2023-02-02T07:18:50;101813.25;;;6.15;61.18
68822;BME280;55834;50.870;4.606;2023-02-02T07:21:21;101820.31;;;6.23;59.51
68822;BME280;55834;50.870;4.606;2023-02-02T07:23:47;101820.44;;;5.36;61.61
68822;BME280;55834;50.870;4.606;2023-02-02T07:26:14;101823.38;;;5.69;61.91
68822;BME280;55834;50.870;4.606;2023-02-02T07:28:39;101826.88;;;5.71;62.75
68822;BME280;55834;50.870;4.606;2023-02-02T07:31:20;101828.75;;;5.87;61.68
68822;BME280;55834;50.870;4.606;2023-02-02T07:33:46;101816.59;;;5.95;61.42
68822;BME280;55834;50.870;4.606;2023-02-02T07:36:13;101820.41;;;6.37;60.30
68822;BME280;55834;50.870;4.606;2023-02-02T07:38:43;101829.13;;;6.31;60.55
68822;BME280;55834;50.870;4.606;2023-02-02T07:41:09;101836.53;;;5.75;61.10
68822;BME280;55834;50.870;4.606;2023-02-02T07:43:34;101836.94;;;5.28;63.24
68822;BME280;55834;50.870;4.606;2023-02-02T07:46:01;101830.44;;;5.79;61.38
68822;BME280;55834;50.870;4.606;2023-02-02T07:48:28;101837.94;;;4.72;64.88
68822;BME280;55834;50.870;4.606;2023-02-02T07:50:57;101831.28;;;5.75;61.93
68822;BME280;55834;50.870;4.606;2023-02-02T07:53:23;101841.06;;;5.96;62.19
68822;BME280;55834;50.870;4.606;2023-02-02T07:55:48;101842.22;;;5.35;62.09
68822;BME280;55834;50.870;4.606;2023-02-02T07:58:14;101836.78;;;6.07;60.95
68822;BME280;55834;50.870;4.606;2023-02-02T08:00:39;101827.19;;;6.06;59.92
68822;BME280;55834;50.870;4.606;2023-02-02T08:03:04;101842.16;;;6.22;59.95
68822;BME280;55834;50.870;4.606;2023-02-02T08:05:30;101827.59;;;5.56;61.64
68822;BME280;55834;50.870;4.606;2023-02-02T08:07:56;101841.56;;;4.82;63.17
68822;BME280;55834;50.870;4.606;2023-02-02T08:10:22;101834.06;;;5.08;63.03
68822;BME280;55834;50.870;4.606;2023-02-02T08:12:47;101845.03;;;5.51;61.54
68822;BME280;55834;50.870;4.606;2023-02-02T08:15:12;101848.69;;;4.93;63.62
68822;BME280;55834;50.870;4.606;2023-02-02T08:17:38;101836.94;;;5.28;63.07
68822;BME280;55834;50.870;4.606;2023-02-02T08:20:03;101836.66;;;5.88;60.51
68822;BME280;55834;50.870;4.606;2023-02-02T08:22:30;101843.50;;;4.96;62.64
68822;BME280;55834;50.870;4.606;2023-02-02T08:24:55;101829.25;;;5.46;61.75
68822;BME280;55834;50.870;4.606;2023-02-02T08:27:20;101829.31;;;5.51;61.54
68822;BME280;55834;50.870;4.606;2023-02-02T08:29:46;101832.13;;;5.72;60.67
68822;BME280;55834;50.870;4.606;2023-02-02T08:32:11;101829.19;;;5.40;61.33
68822;BME280;55834;50.870;4.606;2023-02-02T08:34:36;101845.41;;;5.94;59.81
68822;BME280;55834;50.870;4.606;2023-02-02T08:37:02;101844.06;;;6.45;59.05
68822;BME280;55834;50.870;4.606;2023-02-02T08:39:28;101842.75;;;5.87;59.26
68822;BME280;55834;50.870;4.606;2023-02-02T08:41:54;101851.78;;;6.23;59.24
68822;BME280;55834;50.870;4.606;2023-02-02T08:44:20;101848.50;;;6.60;58.11
68822;BME280;55834;50.870;4.606;2023-02-02T08:46:46;101857.78;;;6.10;59.42
68822;BME280;55834;50.870;4.606;2023-02-02T08:49:12;101859.56;;;6.13;59.02
68822;BME280;55834;50.870;4.606;2023-02-02T08:51:37;101869.78;;;5.80;59.73
68822;BME280;55834;50.870;4.606;2023-02-02T08:54:03;101876.25;;;5.32;60.85
68822;BME280;55834;50.870;4.606;2023-02-02T08:56:28;101876.69;;;5.71;60.84
68822;BME280;55834;50.870;4.606;2023-02-02T08:58:55;101878.63;;;5.92;60.28
68822;BME280;55834;50.870;4.606;2023-02-02T09:01:28;101874.41;;;6.10;58.11
68822;BME280;55834;50.870;4.606;2023-02-02T09:03:55;101886.84;;;6.36;58.53
68822;BME280;55834;50.870;4.606;2023-02-02T09:06:25;101884.34;;;6.56;57.33
68822;BME280;55834;50.870;4.606;2023-02-02T09:08:51;101886.69;;;6.15;58.47
68822;BME280;55834;50.870;4.606;2023-02-02T09:11:18;101900.50;;;5.16;60.94
68822;BME280;55834;50.870;4.606;2023-02-02T09:13:45;101900.06;;;5.55;60.00
68822;BME280;55834;50.870;4.606;2023-02-02T09:16:12;101899.88;;;6.28;59.11
68822;BME280;55834;50.870;4.606;2023-02-02T09:18:39;101915.22;;;5.09;61.20
68822;BME280;55834;50.870;4.606;2023-02-02T09:21:07;101917.41;;;5.42;60.23
68822;BME280;55834;50.870;4.606;2023-02-02T09:23:35;101914.06;;;5.59;60.01
68822;BME280;55834;50.870;4.606;2023-02-02T09:28:34;101918.47;;;5.61;60.03
68822;BME280;55834;50.870;4.606;2023-02-02T09:31:03;101918.38;;;5.52;60.05
68822;BME280;55834;50.870;4.606;2023-02-02T09:33:28;101913.84;;;6.23;58.26
68822;BME280;55834;50.870;4.606;2023-02-02T09:35:53;101932.34;;;6.38;57.75
68822;BME280;55834;50.870;4.606;2023-02-02T09:38:19;101936.56;;;6.22;58.15
68822;BME280;55834;50.870;4.606;2023-02-02T09:40:44;101931.41;;;6.31;57.91
68822;BME280;55834;50.870;4.606;2023-02-02T09:46:10;101938.16;;;6.06;57.45
68822;BME280;55834;50.870;4.606;2023-02-02T09:48:58;101943.59;;;6.26;57.74
68822;BME280;55834;50.870;4.606;2023-02-02T09:51:28;101952.22;;;6.11;58.23
68822;BME280;55834;50.870;4.606;2023-02-02T09:53:59;101950.78;;;6.50;57.05
68822;BME280;55834;50.870;4.606;2023-02-02T09:56:33;101955.44;;;6.82;56.63
68822;BME280;55834;50.870;4.606;2023-02-02T09:59:05;101957.19;;;6.86;55.48
68822;BME280;55834;50.870;4.606;2023-02-02T10:01:37;101951.31;;;7.29;54.99
68822;BME280;55834;50.870;4.606;2023-02-02T10:04:27;101944.06;;;6.86;56.07
68822;BME280;55834;50.870;4.606;2023-02-02T10:06:57;101954.81;;;7.31;54.96
68822;BME280;55834;50.870;4.606;2023-02-02T10:14:37;101949.44;;;7.06;55.32
68822;BME280;55834;50.870;4.606;2023-02-02T10:17:36;101961.69;;;7.06;55.33
68822;BME280;55834;50.870;4.606;2023-02-02T10:20:16;101960.16;;;7.49;54.81
68822;BME280;55834;50.870;4.606;2023-02-02T10:22:45;101969.75;;;7.44;54.37
68822;BME280;55834;50.870;4.606;2023-02-02T10:25:13;101979.47;;;7.63;54.15
68822;BME280;55834;50.870;4.606;2023-02-02T10:27:40;101960.84;;;7.10;55.57
68822;BME280;55834;50.870;4.606;2023-02-02T10:30:25;101980.75;;;6.77;55.87
68822;BME280;55834;50.870;4.606;2023-02-02T10:33:08;101988.28;;;6.39;57.50
68822;BME280;55834;50.870;4.606;2023-02-02T10:36:08;101986.63;;;6.48;57.05
68822;BME280;55834;50.870;4.606;2023-02-02T10:46:46;101985.72;;;8.04;53.39
68822;BME280;55834;50.870;4.606;2023-02-02T10:49:31;101983.09;;;7.98;52.95
68822;BME280;55834;50.870;4.606;2023-02-02T10:54:52;101994.81;;;6.84;55.61
68822;BME280;55834;50.870;4.606;2023-02-02T11:00:42;101980.13;;;7.15;54.11
68822;BME280;55834;50.870;4.606;2023-02-02T11:03:17;101983.88;;;7.72;54.49
68822;BME280;55834;50.870;4.606;2023-02-02T11:05:45;101986.31;;;7.26;54.23
68822;BME280;55834;50.870;4.606;2023-02-02T11:08:32;101985.63;;;7.70;53.82
68822;BME280;55834;50.870;4.606;2023-02-02T11:11:10;101979.16;;;7.00;55.06
68822;BME280;55834;50.870;4.606;2023-02-02T11:13:41;101986.28;;;7.18;55.55
68822;BME280;55834;50.870;4.606;2023-02-02T11:18:41;101988.13;;;7.41;54.64
68822;BME280;55834;50.870;4.606;2023-02-02T11:21:28;101990.88;;;7.67;53.94
68822;BME280;55834;50.870;4.606;2023-02-02T11:24:20;101979.66;;;8.28;52.58
68822;BME280;55834;50.870;4.606;2023-02-02T11:26:57;101967.41;;;8.74;50.80
68822;BME280;55834;50.870;4.606;2023-02-02T11:29:31;101977.78;;;7.76;52.85
68822;BME280;55834;50.870;4.606;2023-02-02T11:31:57;101963.00;;;8.17;52.65
68822;BME280;55834;50.870;4.606;2023-02-02T11:34:41;101966.44;;;7.94;52.80
68822;BME280;55834;50.870;4.606;2023-02-02T11:37:12;101955.91;;;8.05;52.12
68822;BME280;55834;50.870;4.606;2023-02-02T11:39:40;101970.00;;;8.05;52.06
68822;BME280;55834;50.870;4.606;2023-02-02T11:42:14;101968.19;;;7.95;53.33
68822;BME280;55834;50.870;4.606;2023-02-02T11:44:47;101957.75;;;8.32;51.21
68822;BME280;55834;50.870;4.606;2023-02-02T11:47:30;101960.19;;;7.58;52.10
68822;BME280;55834;50.870;4.606;2023-02-02T11:49:59;101967.38;;;8.05;51.87
68822;BME280;55834;50.870;4.606;2023-02-02T11:52:26;101958.94;;;6.86;54.35
68822;BME280;55834;50.870;4.606;2023-02-02T11:54:56;101969.78;;;7.49;54.18
68822;BME280;55834;50.870;4.606;2023-02-02T11:57:23;101973.16;;;7.15;55.12
68822;BME280;55834;50.870;4.606;2023-02-02T11:59:51;101980.97;;;7.09;55.64
68822;BME280;55834;50.870;4.606;2023-02-02T12:02:32;101972.63;;;8.05;52.85
68822;BME280;55834;50.870;4.606;2023-02-02T12:05:31;101981.97;;;7.28;53.70
68822;BME280;55834;50.870;4.606;2023-02-02T12:07:57;101979.59;;;8.05;53.23
68822;BME280;55834;50.870;4.606;2023-02-02T12:11:03;101970.00;;;8.22;51.88
68822;BME280;55834;50.870;4.606;2023-02-02T12:13:39;101972.53;;;7.84;52.50
68822;BME280;55834;50.870;4.606;2023-02-02T12:16:23;101962.91;;;7.83;53.15
68822;BME280;55834;50.870;4.606;2023-02-02T12:21:58;101962.84;;;7.69;53.73
68822;BME280;55834;50.870;4.606;2023-02-02T12:24:31;101959.41;;;7.95;53.53
68822;BME280;55834;50.870;4.606;2023-02-02T12:33:06;101947.22;;;8.20;51.94
68822;BME280;55834;50.870;4.606;2023-02-02T12:41:25;101957.53;;;7.52;54.03
68822;BME280;55834;50.870;4.606;2023-02-02T12:47:05;101947.22;;;8.35;52.42
68822;BME280;55834;50.870;4.606;2023-02-02T12:52:16;101934.06;;;8.66;51.55
68822;BME280;55834;50.870;4.606;2023-02-02T12:58:08;101919.06;;;8.98;50.25
68822;BME280;55834;50.870;4.606;2023-02-02T13:04:09;101940.06;;;7.62;52.92
68822;BME280;55834;50.870;4.606;2023-02-02T13:09:50;101935.72;;;7.87;53.17
68822;BME280;55834;50.870;4.606;2023-02-02T13:12:23;101930.44;;;7.65;52.80
68822;BME280;55834;50.870;4.606;2023-02-02T13:14:59;101927.91;;;8.13;53.02
68822;BME280;55834;50.870;4.606;2023-02-02T13:17:37;101923.50;;;8.40;52.48
68822;BME280;55834;50.870;4.606;2023-02-02T13:22:51;101925.28;;;8.05;53.23
68822;BME280;55834;50.870;4.606;2023-02-02T13:25:23;101925.16;;;7.70;53.71
68822;BME280;55834;50.870;4.606;2023-02-02T13:27:49;101931.84;;;6.87;55.88
68822;BME280;55834;50.870;4.606;2023-02-02T13:32:58;101923.47;;;8.01;53.39
68822;BME280;55834;50.870;4.606;2023-02-02T13:38:15;101907.72;;;8.66;52.28
68822;BME280;55834;50.870;4.606;2023-02-02T13:40:43;101924.41;;;8.26;53.33
68822;BME280;55834;50.870;4.606;2023-02-02T13:48:49;101917.41;;;8.28;52.39
68822;BME280;55834;50.870;4.606;2023-02-02T13:51:50;101914.75;;;8.53;50.79
68822;BME280;55834;50.870;4.606;2023-02-02T14:02:54;101893.69;;;8.59;52.84
68822;BME280;55834;50.870;4.606;2023-02-02T14:05:35;101901.53;;;7.73;55.66
68822;BME280;55834;50.870;4.606;2023-02-02T14:08:05;101912.13;;;8.24;54.04
68822;BME280;55834;50.870;4.606;2023-02-02T14:10:35;101902.44;;;7.83;54.20
68822;BME280;55834;50.870;4.606;2023-02-02T14:13:07;101887.53;;;8.58;53.66
68822;BME280;55834;50.870;4.606;2023-02-02T14:15:58;101895.34;;;8.91;51.67
68822;BME280;55834;50.870;4.606;2023-02-02T14:24:03;101888.38;;;8.71;52.64
68822;BME280;55834;50.870;4.606;2023-02-02T14:26:53;101902.44;;;8.69;52.94
68822;BME280;55834;50.870;4.606;2023-02-02T14:31:57;101912.09;;;8.73;52.40
68822;BME280;55834;50.870;4.606;2023-02-02T14:34:32;101922.63;;;7.99;53.96
68822;BME280;55834;50.870;4.606;2023-02-02T14:43:06;101937.97;;;6.90;57.17
68822;BME280;55834;50.870;4.606;2023-02-02T14:48:41;101944.50;;;7.80;56.32
68822;BME280;55834;50.870;4.606;2023-02-02T14:51:18;101932.31;;;8.20;55.63
68822;BME280;55834;50.870;4.606;2023-02-02T14:54:04;101941.88;;;8.04;56.73
68822;BME280;55834;50.870;4.606;2023-02-02T14:56:49;101927.06;;;8.40;55.45
68822;BME280;55834;50.870;4.606;2023-02-02T15:04:40;101948.97;;;8.41;55.26
68822;BME280;55834;50.870;4.606;2023-02-02T15:07:35;101948.09;;;8.52;55.20
68822;BME280;55834;50.870;4.606;2023-02-02T15:10:02;101956.88;;;8.51;54.88
68822;BME280;55834;50.870;4.606;2023-02-02T15:12:32;101960.38;;;8.20;56.27
68822;BME280;55834;50.870;4.606;2023-02-02T15:15:25;101967.19;;;7.61;57.44
68822;BME280;55834;50.870;4.606;2023-02-02T15:18:13;101968.06;;;7.57;57.95